sensor_id;sensor_type;location;lat;lon;timestamp;pressure;altitude;pressure_sealevel;temperature;humidity
53526;BME280;40551;50.478;19.378;2022-12-29T00:01:09;97884.73;;;2.59;74.26
53526;BME280;40551;50.478;19.378;2022-12-29T00:03:38;97884.59;;;2.62;74.14
53526;BME280;40551;50.478;19.378;2022-12-29T00:06:06;97883.45;;;2.64;74.15
53526;BME280;40551;50.478;19.378;2022-12-29T00:08:34;97883.88;;;2.65;73.90
53526;BME280;40551;50.478;19.378;2022-12-29T00:11:10;97879.02;;;2.66;73.64
53526;BME280;40551;50.478;19.378;2022-12-29T00:13:38;97879.09;;;2.68;73.57
53526;BME280;40551;50.478;19.378;2022-12-29T00:16:25;97888.80;;;2.69;73.62
53526;BME280;40551;50.478;19.378;2022-12-29T00:18:54;97890.08;;;2.71;73.66
53526;BME280;40551;50.478;19.378;2022-12-29T00:21:23;97888.47;;;2.72;73.76
53526;BME280;40551;50.478;19.378;2022-12-29T00:24:16;97887.56;;;2.73;73.27
53526;BME280;40551;50.478;19.378;2022-12-29T00:27:11;97886.73;;;2.72;73.30
53526;BME280;40551;50.478;19.378;2022-12-29T00:29:58;97885.98;;;2.74;73.26
53526;BME280;40551;50.478;19.378;2022-12-29T00:32:45;97884.46;;;2.76;73.26
53526;BME280;40551;50.478;19.378;2022-12-29T00:35:37;97879.02;;;2.79;73.12
53526;BME280;40551;50.478;19.378;2022-12-29T00:38:09;97880.48;;;2.80;73.33
53526;BME280;40551;50.478;19.378;2022-12-29T00:40:56;97877.19;;;2.81;73.37
53526;BME280;40551;50.478;19.378;2022-12-29T00:43:42;97872.17;;;2.82;72.94
53526;BME280;40551;50.478;19.378;2022-12-29T00:46:28;97872.89;;;2.81;73.12
53526;BME280;40551;50.478;19.378;2022-12-29T00:48:58;97874.51;;;2.79;72.94
53526;BME280;40551;50.478;19.378;2022-12-29T00:51:45;97877.20;;;2.78;73.04
53526;BME280;40551;50.478;19.378;2022-12-29T00:54:14;97882.33;;;2.78;72.89
53526;BME280;40551;50.478;19.378;2022-12-29T00:56:47;97881.48;;;2.78;72.90
53526;BME280;40551;50.478;19.378;2022-12-29T00:59:18;97880.59;;;2.78;72.80
53526;BME280;40551;50.478;19.378;2022-12-29T01:01:47;97869.05;;;2.79;72.86
53526;BME280;40551;50.478;19.378;2022-12-29T01:04:16;97874.81;;;2.80;72.81
53526;BME280;40551;50.478;19.378;2022-12-29T01:06:45;97867.98;;;2.80;72.84
53526;BME280;40551;50.478;19.378;2022-12-29T01:09:17;97858.95;;;2.79;73.02
53526;BME280;40551;50.478;19.378;2022-12-29T01:12:05;97860.48;;;2.76;72.88
53526;BME280;40551;50.478;19.378;2022-12-29T01:14:36;97861.27;;;2.74;72.78
53526;BME280;40551;50.478;19.378;2022-12-29T01:17:05;97855.27;;;2.72;72.60
53526;BME280;40551;50.478;19.378;2022-12-29T01:19:33;97848.08;;;2.71;72.52
53526;BME280;40551;50.478;19.378;2022-12-29T01:22:02;97856.21;;;2.70;72.59
53526;BME280;40551;50.478;19.378;2022-12-29T01:24:30;97857.27;;;2.69;72.89
53526;BME280;40551;50.478;19.378;2022-12-29T01:26:58;97861.44;;;2.68;72.76
53526;BME280;40551;50.478;19.378;2022-12-29T01:29:26;97867.45;;;2.68;72.34
53526;BME280;40551;50.478;19.378;2022-12-29T01:31:55;97865.38;;;2.69;72.69
53526;BME280;40551;50.478;19.378;2022-12-29T01:34:23;97865.09;;;2.67;72.54
53526;BME280;40551;50.478;19.378;2022-12-29T01:36:52;97868.98;;;2.69;72.81
53526;BME280;40551;50.478;19.378;2022-12-29T01:39:20;97864.83;;;2.69;72.65
53526;BME280;40551;50.478;19.378;2022-12-29T01:41:48;97865.86;;;2.69;72.56
53526;BME280;40551;50.478;19.378;2022-12-29T01:44:48;97870.34;;;2.69;72.62
53526;BME280;40551;50.478;19.378;2022-12-29T01:47:25;97868.02;;;2.67;72.48
53526;BME280;40551;50.478;19.378;2022-12-29T01:49:55;97870.94;;;2.67;72.78
53526;BME280;40551;50.478;19.378;2022-12-29T01:52:25;97866.99;;;2.67;72.51
53526;BME280;40551;50.478;19.378;2022-12-29T01:54:56;97869.67;;;2.68;72.62
53526;BME280;40551;50.478;19.378;2022-12-29T01:57:27;97873.08;;;2.69;72.73
53526;BME280;40551;50.478;19.378;2022-12-29T02:00:01;97874.00;;;2.70;72.53
53526;BME280;40551;50.478;19.378;2022-12-29T02:02:40;97878.88;;;2.72;72.47
53526;BME280;40551;50.478;19.378;2022-12-29T02:05:16;97873.48;;;2.73;72.60
53526;BME280;40551;50.478;19.378;2022-12-29T02:07:47;97872.60;;;2.74;72.54
53526;BME280;40551;50.478;19.378;2022-12-29T02:10:16;97867.17;;;2.76;72.59
53526;BME280;40551;50.478;19.378;2022-12-29T02:12:46;97865.64;;;2.79;72.40
53526;BME280;40551;50.478;19.378;2022-12-29T02:15:15;97860.23;;;2.81;72.38
53526;BME280;40551;50.478;19.378;2022-12-29T02:17:56;97850.88;;;2.82;72.27
53526;BME280;40551;50.478;19.378;2022-12-29T02:20:47;97838.38;;;2.82;72.14
53526;BME280;40551;50.478;19.378;2022-12-29T02:23:52;97820.81;;;2.81;72.20
53526;BME280;40551;50.478;19.378;2022-12-29T02:26:51;97811.17;;;2.79;71.86
53526;BME280;40551;50.478;19.378;2022-12-29T02:29:40;97803.39;;;2.77;71.63
53526;BME280;40551;50.478;19.378;2022-12-29T02:32:17;97794.54;;;2.76;71.85
53526;BME280;40551;50.478;19.378;2022-12-29T02:34:53;97783.29;;;2.75;71.60
53526;BME280;40551;50.478;19.378;2022-12-29T02:37:31;97784.17;;;2.75;71.74
53526;BME280;40551;50.478;19.378;2022-12-29T02:40:07;97779.79;;;2.74;71.91
53526;BME280;40551;50.478;19.378;2022-12-29T02:42:46;97791.65;;;2.73;71.90
53526;BME280;40551;50.478;19.378;2022-12-29T02:45:22;97800.05;;;2.73;72.07
53526;BME280;40551;50.478;19.378;2022-12-29T02:47:58;97803.66;;;2.73;72.04
53526;BME280;40551;50.478;19.378;2022-12-29T02:50:34;97806.88;;;2.73;72.38
53526;BME280;40551;50.478;19.378;2022-12-29T02:53:08;97806.26;;;2.72;72.01
53526;BME280;40551;50.478;19.378;2022-12-29T02:55:37;97799.39;;;2.72;72.25
53526;BME280;40551;50.478;19.378;2022-12-29T02:58:19;97796.14;;;2.72;72.13
53526;BME280;40551;50.478;19.378;2022-12-29T03:01:09;97799.23;;;2.72;72.08
53526;BME280;40551;50.478;19.378;2022-12-29T03:03:51;97798.94;;;2.71;71.93
53526;BME280;40551;50.478;19.378;2022-12-29T03:06:31;97806.95;;;2.72;72.31
53526;BME280;40551;50.478;19.378;2022-12-29T03:09:06;97804.19;;;2.73;72.11
53526;BME280;40551;50.478;19.378;2022-12-29T03:11:52;97794.63;;;2.72;72.15
53526;BME280;40551;50.478;19.378;2022-12-29T03:14:46;97810.70;;;2.72;72.21
53526;BME280;40551;50.478;19.378;2022-12-29T03:17:43;97814.99;;;2.72;72.27
53526;BME280;40551;50.478;19.378;2022-12-29T03:20:18;97813.44;;;2.72;72.34
53526;BME280;40551;50.478;19.378;2022-12-29T03:22:51;97806.64;;;2.72;72.13
53526;BME280;40551;50.478;19.378;2022-12-29T03:25:27;97799.96;;;2.72;72.19
53526;BME280;40551;50.478;19.378;2022-12-29T03:28:01;97800.77;;;2.72;72.36
53526;BME280;40551;50.478;19.378;2022-12-29T03:30:32;97790.69;;;2.72;72.25
53526;BME280;40551;50.478;19.378;2022-12-29T03:33:04;97782.98;;;2.72;72.30
53526;BME280;40551;50.478;19.378;2022-12-29T03:35:38;97783.73;;;2.71;72.18
53526;BME280;40551;50.478;19.378;2022-12-29T03:38:14;97785.14;;;2.70;72.25
53526;BME280;40551;50.478;19.378;2022-12-29T03:40:48;97779.70;;;2.70;72.38
53526;BME280;40551;50.478;19.378;2022-12-29T03:43:18;97781.00;;;2.68;72.07
53526;BME280;40551;50.478;19.378;2022-12-29T03:45:47;97790.80;;;2.67;72.32
53526;BME280;40551;50.478;19.378;2022-12-29T03:48:15;97797.79;;;2.64;72.11
53526;BME280;40551;50.478;19.378;2022-12-29T03:50:44;97793.81;;;2.62;72.33
53526;BME280;40551;50.478;19.378;2022-12-29T03:53:12;97796.28;;;2.61;72.21
53526;BME280;40551;50.478;19.378;2022-12-29T03:55:41;97796.34;;;2.60;72.26
53526;BME280;40551;50.478;19.378;2022-12-29T03:58:10;97795.76;;;2.58;72.35
53526;BME280;40551;50.478;19.378;2022-12-29T04:00:53;97791.51;;;2.57;72.53
53526;BME280;40551;50.478;19.378;2022-12-29T04:03:21;97790.05;;;2.56;72.57
53526;BME280;40551;50.478;19.378;2022-12-29T04:05:50;97778.98;;;2.55;72.63
53526;BME280;40551;50.478;19.378;2022-12-29T04:08:18;97780.42;;;2.54;72.64
53526;BME280;40551;50.478;19.378;2022-12-29T04:10:48;97776.02;;;2.53;72.72
53526;BME280;40551;50.478;19.378;2022-12-29T04:13:18;97766.98;;;2.53;72.56
53526;BME280;40551;50.478;19.378;2022-12-29T04:15:46;97756.94;;;2.51;72.74
53526;BME280;40551;50.478;19.378;2022-12-29T04:18:14;97751.54;;;2.50;72.82
53526;BME280;40551;50.478;19.378;2022-12-29T04:20:45;97750.10;;;2.48;72.68
53526;BME280;40551;50.478;19.378;2022-12-29T04:23:33;97741.54;;;2.45;72.50
53526;BME280;40551;50.478;19.378;2022-12-29T04:26:04;97740.40;;;2.43;72.67
53526;BME280;40551;50.478;19.378;2022-12-29T04:28:38;97747.13;;;2.43;72.85
53526;BME280;40551;50.478;19.378;2022-12-29T04:31:26;97744.99;;;2.41;72.78
53526;BME280;40551;50.478;19.378;2022-12-29T04:33:54;97753.05;;;2.41;73.00
53526;BME280;40551;50.478;19.378;2022-12-29T04:36:25;97756.20;;;2.40;73.00
53526;BME280;40551;50.478;19.378;2022-12-29T04:38:57;97759.17;;;2.39;73.00
53526;BME280;40551;50.478;19.378;2022-12-29T04:41:27;97762.02;;;2.37;73.13
53526;BME280;40551;50.478;19.378;2022-12-29T04:43:55;97759.04;;;2.35;73.06
53526;BME280;40551;50.478;19.378;2022-12-29T04:46:42;97760.02;;;2.33;73.31
53526;BME280;40551;50.478;19.378;2022-12-29T04:49:30;97753.17;;;2.30;73.11
53526;BME280;40551;50.478;19.378;2022-12-29T04:52:20;97748.38;;;2.27;73.24
53526;BME280;40551;50.478;19.378;2022-12-29T04:54:49;97744.40;;;2.24;73.27
53526;BME280;40551;50.478;19.378;2022-12-29T04:57:20;97733.22;;;2.20;73.13
53526;BME280;40551;50.478;19.378;2022-12-29T04:59:53;97733.21;;;2.16;73.14
53526;BME280;40551;50.478;19.378;2022-12-29T05:02:21;97738.78;;;2.15;73.24
53526;BME280;40551;50.478;19.378;2022-12-29T05:04:51;97746.69;;;2.14;73.58
53526;BME280;40551;50.478;19.378;2022-12-29T05:07:20;97743.66;;;2.13;73.60
53526;BME280;40551;50.478;19.378;2022-12-29T05:09:49;97741.44;;;2.13;73.72
53526;BME280;40551;50.478;19.378;2022-12-29T05:12:17;97745.93;;;2.13;73.67
53526;BME280;40551;50.478;19.378;2022-12-29T05:14:54;97747.70;;;2.12;73.78
53526;BME280;40551;50.478;19.378;2022-12-29T05:17:22;97744.50;;;2.11;73.52
53526;BME280;40551;50.478;19.378;2022-12-29T05:19:51;97743.36;;;2.09;73.63
53526;BME280;40551;50.478;19.378;2022-12-29T05:22:19;97740.81;;;2.09;73.67
53526;BME280;40551;50.478;19.378;2022-12-29T05:24:48;97748.52;;;2.09;73.78
53526;BME280;40551;50.478;19.378;2022-12-29T05:27:17;97749.13;;;2.11;73.80
53526;BME280;40551;50.478;19.378;2022-12-29T05:29:55;97745.84;;;2.11;73.83
53526;BME280;40551;50.478;19.378;2022-12-29T05:32:23;97742.05;;;2.11;73.79
53526;BME280;40551;50.478;19.378;2022-12-29T05:34:54;97735.93;;;2.11;73.81
53526;BME280;40551;50.478;19.378;2022-12-29T05:37:24;97738.48;;;2.11;73.91
53526;BME280;40551;50.478;19.378;2022-12-29T05:39:52;97734.04;;;2.11;73.80
53526;BME280;40551;50.478;19.378;2022-12-29T05:42:21;97743.06;;;2.12;73.87
53526;BME280;40551;50.478;19.378;2022-12-29T05:44:57;97743.48;;;2.13;73.95
53526;BME280;40551;50.478;19.378;2022-12-29T05:47:38;97739.66;;;2.14;73.90
53526;BME280;40551;50.478;19.378;2022-12-29T05:50:18;97734.33;;;2.15;73.61
53526;BME280;40551;50.478;19.378;2022-12-29T05:53:05;97732.23;;;2.16;74.02
53526;BME280;40551;50.478;19.378;2022-12-29T05:55:34;97719.48;;;2.17;73.99
53526;BME280;40551;50.478;19.378;2022-12-29T05:58:03;97708.70;;;2.17;74.05
53526;BME280;40551;50.478;19.378;2022-12-29T06:00:31;97700.02;;;2.16;73.81
53526;BME280;40551;50.478;19.378;2022-12-29T06:03:00;97694.45;;;2.15;73.85
53526;BME280;40551;50.478;19.378;2022-12-29T06:05:30;97712.64;;;2.14;73.97
53526;BME280;40551;50.478;19.378;2022-12-29T06:07:59;97703.31;;;2.13;73.96
53526;BME280;40551;50.478;19.378;2022-12-29T06:10:28;97710.43;;;2.11;73.93
53526;BME280;40551;50.478;19.378;2022-12-29T06:13:04;97719.19;;;2.10;74.03
53526;BME280;40551;50.478;19.378;2022-12-29T06:15:36;97722.14;;;2.10;74.23
53526;BME280;40551;50.478;19.378;2022-12-29T06:18:06;97721.88;;;2.08;74.01
53526;BME280;40551;50.478;19.378;2022-12-29T06:20:35;97718.75;;;2.06;73.85
53526;BME280;40551;50.478;19.378;2022-12-29T06:23:06;97714.83;;;2.06;74.33
53526;BME280;40551;50.478;19.378;2022-12-29T06:25:34;97711.80;;;2.05;74.44
53526;BME280;40551;50.478;19.378;2022-12-29T06:28:04;97716.43;;;2.05;74.52
53526;BME280;40551;50.478;19.378;2022-12-29T06:30:33;97725.63;;;2.06;74.50
53526;BME280;40551;50.478;19.378;2022-12-29T06:33:02;97727.32;;;2.06;74.54
53526;BME280;40551;50.478;19.378;2022-12-29T06:35:30;97725.91;;;2.06;74.51
53526;BME280;40551;50.478;19.378;2022-12-29T06:38:00;97731.05;;;2.06;74.59
53526;BME280;40551;50.478;19.378;2022-12-29T06:40:28;97726.10;;;2.06;74.62
53526;BME280;40551;50.478;19.378;2022-12-29T06:43:17;97712.17;;;2.05;74.98
53526;BME280;40551;50.478;19.378;2022-12-29T06:45:59;97702.64;;;2.04;74.97
53526;BME280;40551;50.478;19.378;2022-12-29T06:48:28;97699.70;;;2.04;75.01
53526;BME280;40551;50.478;19.378;2022-12-29T06:50:56;97698.48;;;2.04;75.22
53526;BME280;40551;50.478;19.378;2022-12-29T06:53:24;97690.58;;;2.05;75.07
53526;BME280;40551;50.478;19.378;2022-12-29T06:55:52;97681.34;;;2.05;75.19
53526;BME280;40551;50.478;19.378;2022-12-29T06:58:21;97676.54;;;2.05;75.23
53526;BME280;40551;50.478;19.378;2022-12-29T07:00:49;97677.71;;;2.06;75.09
53526;BME280;40551;50.478;19.378;2022-12-29T07:03:17;97680.56;;;2.07;75.20
53526;BME280;40551;50.478;19.378;2022-12-29T07:05:45;97680.84;;;2.08;75.38
53526;BME280;40551;50.478;19.378;2022-12-29T07:08:14;97681.11;;;2.09;75.10
53526;BME280;40551;50.478;19.378;2022-12-29T07:10:42;97679.80;;;2.11;75.20
53526;BME280;40551;50.478;19.378;2022-12-29T07:13:10;97679.85;;;2.13;75.43
53526;BME280;40551;50.478;19.378;2022-12-29T07:15:38;97680.59;;;2.15;75.43
53526;BME280;40551;50.478;19.378;2022-12-29T07:18:06;97676.45;;;2.19;75.41
53526;BME280;40551;50.478;19.378;2022-12-29T07:20:35;97675.89;;;2.22;75.31
53526;BME280;40551;50.478;19.378;2022-12-29T07:23:03;97675.40;;;2.25;75.58
53526;BME280;40551;50.478;19.378;2022-12-29T07:25:31;97679.66;;;2.29;75.36
53526;BME280;40551;50.478;19.378;2022-12-29T07:27:59;97674.54;;;2.31;75.36
53526;BME280;40551;50.478;19.378;2022-12-29T07:30:28;97681.05;;;2.34;75.36
53526;BME280;40551;50.478;19.378;2022-12-29T07:32:56;97688.41;;;2.37;75.51
53526;BME280;40551;50.478;19.378;2022-12-29T07:35:24;97691.24;;;2.41;75.37
53526;BME280;40551;50.478;19.378;2022-12-29T07:37:52;97691.89;;;2.45;75.58
53526;BME280;40551;50.478;19.378;2022-12-29T07:40:21;97694.81;;;2.51;75.49
53526;BME280;40551;50.478;19.378;2022-12-29T07:42:49;97702.61;;;2.55;75.36
53526;BME280;40551;50.478;19.378;2022-12-29T07:45:18;97709.58;;;2.59;75.64
53526;BME280;40551;50.478;19.378;2022-12-29T07:47:56;97712.63;;;2.62;75.44
53526;BME280;40551;50.478;19.378;2022-12-29T07:50:25;97712.52;;;2.64;75.33
53526;BME280;40551;50.478;19.378;2022-12-29T07:52:53;97709.42;;;2.68;75.43
53526;BME280;40551;50.478;19.378;2022-12-29T07:55:21;97707.89;;;2.70;75.42
53526;BME280;40551;50.478;19.378;2022-12-29T07:57:53;97711.30;;;2.73;75.37
53526;BME280;40551;50.478;19.378;2022-12-29T08:00:22;97712.94;;;2.78;75.34
53526;BME280;40551;50.478;19.378;2022-12-29T08:02:52;97710.58;;;2.83;75.37
53526;BME280;40551;50.478;19.378;2022-12-29T08:05:21;97714.27;;;2.90;75.32
53526;BME280;40551;50.478;19.378;2022-12-29T08:07:49;97712.86;;;2.97;75.53
53526;BME280;40551;50.478;19.378;2022-12-29T08:10:18;97707.49;;;3.03;75.21
53526;BME280;40551;50.478;19.378;2022-12-29T08:12:46;97696.41;;;3.11;75.27
53526;BME280;40551;50.478;19.378;2022-12-29T08:15:14;97691.67;;;3.18;75.33
53526;BME280;40551;50.478;19.378;2022-12-29T08:17:42;97691.36;;;3.26;75.21
53526;BME280;40551;50.478;19.378;2022-12-29T08:20:11;97692.09;;;3.34;74.96
53526;BME280;40551;50.478;19.378;2022-12-29T08:22:40;97690.78;;;3.41;74.87
53526;BME280;40551;50.478;19.378;2022-12-29T08:25:09;97688.91;;;3.49;74.85
53526;BME280;40551;50.478;19.378;2022-12-29T08:27:37;97688.05;;;3.58;74.78
53526;BME280;40551;50.478;19.378;2022-12-29T08:30:08;97691.51;;;3.65;74.81
53526;BME280;40551;50.478;19.378;2022-12-29T08:32:36;97691.38;;;3.73;74.87
53526;BME280;40551;50.478;19.378;2022-12-29T08:35:06;97693.17;;;3.80;74.74
53526;BME280;40551;50.478;19.378;2022-12-29T08:37:34;97693.37;;;3.88;74.53
53526;BME280;40551;50.478;19.378;2022-12-29T08:40:03;97699.41;;;3.95;74.53
53526;BME280;40551;50.478;19.378;2022-12-29T08:42:32;97698.33;;;4.01;74.74
53526;BME280;40551;50.478;19.378;2022-12-29T08:45:01;97698.45;;;4.08;74.59
53526;BME280;40551;50.478;19.378;2022-12-29T08:47:30;97694.56;;;4.15;74.55
53526;BME280;40551;50.478;19.378;2022-12-29T08:49:58;97689.45;;;4.22;74.41
53526;BME280;40551;50.478;19.378;2022-12-29T08:52:26;97686.59;;;4.29;74.14
53526;BME280;40551;50.478;19.378;2022-12-29T08:54:54;97690.83;;;4.35;74.00
53526;BME280;40551;50.478;19.378;2022-12-29T08:57:23;97693.26;;;4.43;73.81
53526;BME280;40551;50.478;19.378;2022-12-29T09:00:09;97708.31;;;4.51;73.87
53526;BME280;40551;50.478;19.378;2022-12-29T09:02:37;97704.45;;;4.60;73.83
53526;BME280;40551;50.478;19.378;2022-12-29T09:05:08;97705.23;;;4.69;73.68
53526;BME280;40551;50.478;19.378;2022-12-29T09:07:37;97707.41;;;4.78;73.56
53526;BME280;40551;50.478;19.378;2022-12-29T09:10:06;97709.56;;;4.87;73.32
53526;BME280;40551;50.478;19.378;2022-12-29T09:12:35;97706.21;;;4.96;73.16
53526;BME280;40551;50.478;19.378;2022-12-29T09:15:06;97703.77;;;5.04;73.06
53526;BME280;40551;50.478;19.378;2022-12-29T09:17:35;97699.81;;;5.14;73.19
53526;BME280;40551;50.478;19.378;2022-12-29T09:20:10;97701.91;;;5.24;73.05
53526;BME280;40551;50.478;19.378;2022-12-29T09:22:39;97703.85;;;5.30;72.38
53526;BME280;40551;50.478;19.378;2022-12-29T09:25:08;97705.80;;;5.37;72.51
53526;BME280;40551;50.478;19.378;2022-12-29T09:27:37;97703.41;;;5.44;72.45
53526;BME280;40551;50.478;19.378;2022-12-29T09:30:09;97699.31;;;5.51;72.00
53526;BME280;40551;50.478;19.378;2022-12-29T09:32:38;97699.92;;;5.60;72.35
53526;BME280;40551;50.478;19.378;2022-12-29T09:35:13;97695.53;;;5.68;72.31
53526;BME280;40551;50.478;19.378;2022-12-29T09:37:42;97696.61;;;5.75;71.87
53526;BME280;40551;50.478;19.378;2022-12-29T09:40:21;97692.52;;;5.82;71.66
53526;BME280;40551;50.478;19.378;2022-12-29T09:45:42;97681.52;;;5.96;71.14
53526;BME280;40551;50.478;19.378;2022-12-29T09:48:16;97685.27;;;6.04;71.42
53526;BME280;40551;50.478;19.378;2022-12-29T09:50:49;97685.67;;;6.13;70.80
53526;BME280;40551;50.478;19.378;2022-12-29T09:53:24;97683.70;;;6.21;70.97
53526;BME280;40551;50.478;19.378;2022-12-29T09:56:04;97687.45;;;6.31;70.96
53526;BME280;40551;50.478;19.378;2022-12-29T09:58:47;97684.41;;;6.41;71.27
53526;BME280;40551;50.478;19.378;2022-12-29T10:01:30;97689.58;;;6.53;70.82
53526;BME280;40551;50.478;19.378;2022-12-29T10:04:13;97692.27;;;6.63;70.62
53526;BME280;40551;50.478;19.378;2022-12-29T10:07:13;97691.16;;;6.74;70.43
53526;BME280;40551;50.478;19.378;2022-12-29T10:10:10;97685.40;;;6.86;70.52
53526;BME280;40551;50.478;19.378;2022-12-29T10:13:29;97677.52;;;6.99;70.13
53526;BME280;40551;50.478;19.378;2022-12-29T10:16:09;97669.78;;;7.05;69.59
53526;BME280;40551;50.478;19.378;2022-12-29T10:18:55;97665.67;;;7.09;69.30
53526;BME280;40551;50.478;19.378;2022-12-29T10:21:36;97660.37;;;7.12;68.89
53526;BME280;40551;50.478;19.378;2022-12-29T10:24:11;97658.20;;;7.13;68.68
53526;BME280;40551;50.478;19.378;2022-12-29T10:26:41;97658.64;;;7.14;68.35
53526;BME280;40551;50.478;19.378;2022-12-29T10:29:16;97661.93;;;7.13;68.35
53526;BME280;40551;50.478;19.378;2022-12-29T10:31:49;97669.65;;;7.12;68.06
53526;BME280;40551;50.478;19.378;2022-12-29T10:34:23;97660.24;;;7.11;67.93
53526;BME280;40551;50.478;19.378;2022-12-29T10:36:58;97658.82;;;7.09;68.01
53526;BME280;40551;50.478;19.378;2022-12-29T10:39:32;97663.35;;;7.08;67.82
53526;BME280;40551;50.478;19.378;2022-12-29T10:42:07;97663.25;;;7.07;68.25
53526;BME280;40551;50.478;19.378;2022-12-29T10:44:37;97665.14;;;7.08;67.88
53526;BME280;40551;50.478;19.378;2022-12-29T10:47:11;97656.16;;;7.06;67.41
53526;BME280;40551;50.478;19.378;2022-12-29T10:49:44;97654.67;;;7.05;67.57
53526;BME280;40551;50.478;19.378;2022-12-29T10:52:14;97650.80;;;7.05;67.85
53526;BME280;40551;50.478;19.378;2022-12-29T10:54:48;97640.08;;;7.08;68.24
53526;BME280;40551;50.478;19.378;2022-12-29T10:57:25;97635.99;;;7.12;68.49
53526;BME280;40551;50.478;19.378;2022-12-29T10:59:54;97637.55;;;7.17;68.20
53526;BME280;40551;50.478;19.378;2022-12-29T11:02:35;97642.41;;;7.21;68.39
53526;BME280;40551;50.478;19.378;2022-12-29T11:05:16;97634.33;;;7.25;67.27
53526;BME280;40551;50.478;19.378;2022-12-29T11:07:48;97636.45;;;7.26;67.37
53526;BME280;40551;50.478;19.378;2022-12-29T11:10:21;97631.54;;;7.27;67.66
53526;BME280;40551;50.478;19.378;2022-12-29T11:12:58;97627.11;;;7.26;67.22
53526;BME280;40551;50.478;19.378;2022-12-29T11:15:27;97630.73;;;7.24;67.62
53526;BME280;40551;50.478;19.378;2022-12-29T11:17:57;97640.44;;;7.24;67.85
53526;BME280;40551;50.478;19.378;2022-12-29T11:20:33;97641.80;;;7.22;67.63
53526;BME280;40551;50.478;19.378;2022-12-29T11:23:02;97645.23;;;7.20;67.54
53526;BME280;40551;50.478;19.378;2022-12-29T11:25:31;97641.12;;;7.20;67.82
53526;BME280;40551;50.478;19.378;2022-12-29T11:28:02;97639.38;;;7.20;67.69
53526;BME280;40551;50.478;19.378;2022-12-29T11:30:32;97641.87;;;7.21;67.95
53526;BME280;40551;50.478;19.378;2022-12-29T11:33:03;97644.02;;;7.22;68.06
53526;BME280;40551;50.478;19.378;2022-12-29T11:35:35;97644.58;;;7.24;68.08
53526;BME280;40551;50.478;19.378;2022-12-29T11:38:18;97644.84;;;7.22;68.06
53526;BME280;40551;50.478;19.378;2022-12-29T11:40:48;97644.14;;;7.27;67.96
53526;BME280;40551;50.478;19.378;2022-12-29T11:43:23;97640.80;;;7.30;67.94
53526;BME280;40551;50.478;19.378;2022-12-29T11:45:58;97643.16;;;7.35;68.07
53526;BME280;40551;50.478;19.378;2022-12-29T11:48:37;97642.13;;;7.40;67.92
53526;BME280;40551;50.478;19.378;2022-12-29T11:51:10;97639.79;;;7.45;68.28
53526;BME280;40551;50.478;19.378;2022-12-29T11:53:43;97634.66;;;7.49;67.82
53526;BME280;40551;50.478;19.378;2022-12-29T11:56:15;97633.33;;;7.53;67.67
53526;BME280;40551;50.478;19.378;2022-12-29T11:58:44;97630.48;;;7.58;68.05
53526;BME280;40551;50.478;19.378;2022-12-29T12:01:15;97633.36;;;7.63;67.34
53526;BME280;40551;50.478;19.378;2022-12-29T12:03:48;97636.52;;;7.67;67.43
53526;BME280;40551;50.478;19.378;2022-12-29T12:06:22;97629.17;;;7.70;67.49
53526;BME280;40551;50.478;19.378;2022-12-29T12:08:55;97630.34;;;7.73;67.55
53526;BME280;40551;50.478;19.378;2022-12-29T12:11:27;97628.23;;;7.74;67.47
53526;BME280;40551;50.478;19.378;2022-12-29T12:14:07;97633.34;;;7.74;67.70
53526;BME280;40551;50.478;19.378;2022-12-29T12:17:02;97634.91;;;7.74;67.46
53526;BME280;40551;50.478;19.378;2022-12-29T12:19:33;97638.70;;;7.74;67.40
53526;BME280;40551;50.478;19.378;2022-12-29T12:22:13;97640.23;;;7.74;67.75
53526;BME280;40551;50.478;19.378;2022-12-29T12:24:46;97638.88;;;7.76;67.70
53526;BME280;40551;50.478;19.378;2022-12-29T12:27:20;97639.02;;;7.76;67.84
53526;BME280;40551;50.478;19.378;2022-12-29T12:29:56;97639.41;;;7.81;67.92
53526;BME280;40551;50.478;19.378;2022-12-29T12:32:34;97647.08;;;7.87;67.82
53526;BME280;40551;50.478;19.378;2022-12-29T12:35:13;97649.77;;;7.92;67.85
53526;BME280;40551;50.478;19.378;2022-12-29T12:38:06;97645.33;;;7.97;68.04
53526;BME280;40551;50.478;19.378;2022-12-29T12:40:55;97643.48;;;8.01;67.86
53526;BME280;40551;50.478;19.378;2022-12-29T12:43:38;97647.40;;;8.04;67.80
53526;BME280;40551;50.478;19.378;2022-12-29T12:46:23;97643.70;;;8.07;67.95
53526;BME280;40551;50.478;19.378;2022-12-29T12:49:23;97636.22;;;8.07;68.28
53526;BME280;40551;50.478;19.378;2022-12-29T12:52:03;97632.92;;;8.05;68.35
53526;BME280;40551;50.478;19.378;2022-12-29T12:54:45;97629.11;;;8.01;68.69
53526;BME280;40551;50.478;19.378;2022-12-29T12:57:19;97623.50;;;7.96;68.96
53526;BME280;40551;50.478;19.378;2022-12-29T12:59:59;97628.20;;;7.93;69.03
53526;BME280;40551;50.478;19.378;2022-12-29T13:02:36;97627.15;;;7.92;69.47
53526;BME280;40551;50.478;19.378;2022-12-29T13:05:27;97620.41;;;7.89;69.51
53526;BME280;40551;50.478;19.378;2022-12-29T13:08:17;97614.07;;;7.87;69.59
53526;BME280;40551;50.478;19.378;2022-12-29T13:10:55;97621.89;;;7.84;69.79
53526;BME280;40551;50.478;19.378;2022-12-29T13:13:49;97621.31;;;7.82;69.71
53526;BME280;40551;50.478;19.378;2022-12-29T13:16:23;97613.39;;;7.80;70.13
53526;BME280;40551;50.478;19.378;2022-12-29T13:19:00;97614.56;;;7.76;70.37
53526;BME280;40551;50.478;19.378;2022-12-29T13:21:40;97618.48;;;7.79;
53526;BME280;40551;50.478;19.378;2022-12-29T13:24:30;97616.85;;;7.78;70.33
53526;BME280;40551;50.478;19.378;2022-12-29T13:27:08;97616.23;;;7.79;70.44
53526;BME280;40551;50.478;19.378;2022-12-29T13:29:46;97605.98;;;7.77;69.96
53526;BME280;40551;50.478;19.378;2022-12-29T13:32:28;97610.74;;;7.76;70.32
53526;BME280;40551;50.478;19.378;2022-12-29T13:35:19;97606.67;;;7.75;70.34
53526;BME280;40551;50.478;19.378;2022-12-29T13:37:59;97610.56;;;7.74;70.28
53526;BME280;40551;50.478;19.378;2022-12-29T13:40:32;97613.06;;;7.73;70.25